createdAt,value
2017-10-19T00:00:32.613Z,14.10
2017-10-19T00:03:01.779Z,14.10
2017-10-19T00:05:33.513Z,14.10
2017-10-19T00:08:02.770Z,14.10
2017-10-19T00:10:32.110Z,14.10
2017-10-19T00:13:02.714Z,14.00
2017-10-19T00:15:32.317Z,14.00
2017-10-19T00:18:01.305Z,13.90
2017-10-19T00:20:30.220Z,13.90
2017-10-19T00:22:59.318Z,13.90
2017-10-19T00:25:28.509Z,13.90
2017-10-19T00:27:57.721Z,13.90
2017-10-19T00:30:27.098Z,13.80
2017-10-19T00:32:56.245Z,13.80
2017-10-19T00:35:25.266Z,13.80
2017-10-19T00:37:54.323Z,13.80
2017-10-19T00:40:23.468Z,13.70
2017-10-19T00:42:52.573Z,13.70
2017-10-19T00:45:22.369Z,13.60
2017-10-19T00:47:51.317Z,13.60
2017-10-19T00:50:24.624Z,13.60
2017-10-19T00:53:03.407Z,13.50
2017-10-19T00:55:42.688Z,13.50
2017-10-19T00:58:12.363Z,13.50
2017-10-19T01:00:41.691Z,13.40
2017-10-19T01:03:11.436Z,13.40
2017-10-19T01:05:40.595Z,13.40
2017-10-19T01:08:10.611Z,13.40
2017-10-19T01:10:40.023Z,13.30
2017-10-19T01:13:10.016Z,13.30
2017-10-19T01:15:39.994Z,13.30
2017-10-19T01:18:09.330Z,13.30
2017-10-19T01:20:38.677Z,13.30
2017-10-19T01:23:08.165Z,13.20
2017-10-19T01:25:38.295Z,13.20
2017-10-19T01:28:07.433Z,13.20
2017-10-19T01:30:36.591Z,13.20
2017-10-19T01:33:06.540Z,13.20
2017-10-19T01:35:35.750Z,13.10
2017-10-19T01:38:05.323Z,13.20
2017-10-19T01:40:35.613Z,13.10
2017-10-19T01:43:07.088Z,13.10
2017-10-19T01:45:36.859Z,13.10
2017-10-19T01:48:08.827Z,13.00
2017-10-19T01:50:39.281Z,13.00
2017-10-19T01:53:11.027Z,13.00
2017-10-19T01:55:40.321Z,13.00
2017-10-19T01:58:09.604Z,12.90
2017-10-19T02:00:38.656Z,12.90
2017-10-19T02:03:08.039Z,12.90
2017-10-19T02:05:38.036Z,12.90
2017-10-19T02:08:07.396Z,12.90
2017-10-19T02:10:36.590Z,12.90
2017-10-19T02:13:05.877Z,12.80
2017-10-19T02:15:35.062Z,12.80
2017-10-19T02:18:05.226Z,12.70
2017-10-19T02:20:34.298Z,12.70
2017-10-19T02:23:03.583Z,12.80
2017-10-19T02:25:32.840Z,12.70
2017-10-19T02:28:06.965Z,12.80
2017-10-19T02:30:37.314Z,12.70
2017-10-19T02:33:06.481Z,12.70
2017-10-19T02:35:35.744Z,12.70
2017-10-19T02:38:05.552Z,12.70
2017-10-19T02:40:35.373Z,12.70
2017-10-19T02:43:09.260Z,12.60
2017-10-19T02:45:38.681Z,12.60
2017-10-19T02:48:08.082Z,12.60
2017-10-19T02:50:37.678Z,12.60
2017-10-19T02:53:07.190Z,12.60
2017-10-19T02:55:36.536Z,12.60
2017-10-19T02:58:06.163Z,12.60
2017-10-19T03:00:35.602Z,12.60
2017-10-19T03:03:04.812Z,12.50
2017-10-19T03:05:34.105Z,12.60
2017-10-19T03:08:03.339Z,12.50
2017-10-19T03:13:53.209Z,12.50
2017-10-19T03:16:22.630Z,12.50
2017-10-19T03:18:52.019Z,12.50
2017-10-19T03:21:21.209Z,12.50
2017-10-19T03:23:50.389Z,12.50
2017-10-19T03:26:19.558Z,12.50
2017-10-19T03:28:49.573Z,12.40
2017-10-19T03:31:19.353Z,12.40
2017-10-19T03:33:48.485Z,12.50
2017-10-19T03:36:19.522Z,12.40
2017-10-19T03:38:49.546Z,12.40
2017-10-19T03:41:19.497Z,12.40
2017-10-19T03:43:48.702Z,12.40
2017-10-19T03:46:17.898Z,12.40
2017-10-19T03:48:48.232Z,12.40
2017-10-19T03:51:17.388Z,12.40
2017-10-19T03:53:46.560Z,12.40
2017-10-19T03:56:15.806Z,12.40
2017-10-19T03:58:44.980Z,12.30
2017-10-19T04:01:14.971Z,12.30
2017-10-19T04:03:44.187Z,12.30
2017-10-19T04:06:14.469Z,12.30
2017-10-19T04:08:43.777Z,12.30
2017-10-19T04:11:13.524Z,12.30
2017-10-19T04:13:43.557Z,12.30
2017-10-19T04:16:12.835Z,12.30
2017-10-19T04:18:42.807Z,12.20
2017-10-19T04:21:12.050Z,12.20
2017-10-19T04:23:42.102Z,12.20
2017-10-19T04:26:14.542Z,12.20
2017-10-19T04:28:44.769Z,12.20
2017-10-19T04:31:14.785Z,12.10
2017-10-19T04:33:44.017Z,12.10
2017-10-19T04:36:13.279Z,12.10
2017-10-19T04:38:43.282Z,12.10
2017-10-19T04:41:13.533Z,12.10
2017-10-19T04:43:43.972Z,12.10
2017-10-19T04:46:13.926Z,12.10
2017-10-19T04:48:44.441Z,12.10
2017-10-19T04:51:13.707Z,12.10
2017-10-19T04:53:43.455Z,12.10
2017-10-19T04:56:13.042Z,12.10
2017-10-19T04:58:43.534Z,12.00
2017-10-19T05:01:12.908Z,12.00
2017-10-19T05:03:42.322Z,12.00
2017-10-19T05:06:12.351Z,12.00
2017-10-19T05:08:42.837Z,12.00
2017-10-19T05:11:13.068Z,11.90
2017-10-19T05:13:42.523Z,12.00
2017-10-19T05:16:12.632Z,12.00
2017-10-19T05:18:41.903Z,11.90
2017-10-19T05:21:11.681Z,12.00
2017-10-19T05:23:41.205Z,12.00
2017-10-19T05:26:10.716Z,12.00
2017-10-19T05:28:40.776Z,12.00
2017-10-19T05:31:12.063Z,12.00
2017-10-19T05:33:42.246Z,12.00
2017-10-19T05:36:12.904Z,11.90
2017-10-19T05:38:42.414Z,11.90
2017-10-19T05:41:11.966Z,11.90
2017-10-19T05:43:41.852Z,12.00
2017-10-19T05:46:11.312Z,12.00
2017-10-19T05:48:41.569Z,12.00
2017-10-19T05:51:12.102Z,12.00
2017-10-19T05:53:41.772Z,11.90
2017-10-19T05:56:12.124Z,12.00
2017-10-19T05:58:41.571Z,11.90
2017-10-19T06:01:26.176Z,11.90
2017-10-19T06:03:59.358Z,11.90
2017-10-19T06:06:29.906Z,11.90
2017-10-19T06:09:01.612Z,11.90
2017-10-19T06:11:31.825Z,11.90
2017-10-19T06:14:02.532Z,11.90
2017-10-19T06:16:31.899Z,12.00
2017-10-19T06:19:03.979Z,12.00
2017-10-19T06:21:33.593Z,11.90
2017-10-19T06:24:07.450Z,12.00
2017-10-19T06:26:45.096Z,12.00
2017-10-19T06:29:15.757Z,12.00
2017-10-19T06:31:46.500Z,12.00
2017-10-19T06:34:16.725Z,12.00
2017-10-19T06:36:47.142Z,12.00
2017-10-19T06:39:19.898Z,12.00
2017-10-19T06:41:55.947Z,12.00
2017-10-19T06:44:35.591Z,12.00
2017-10-19T06:47:06.750Z,12.00
2017-10-19T06:49:39.038Z,12.10
2017-10-19T06:52:08.820Z,12.10
2017-10-19T06:54:38.411Z,12.10
2017-10-19T06:57:08.051Z,12.10
2017-10-19T06:59:38.487Z,12.10
2017-10-19T07:02:07.849Z,12.10
2017-10-19T07:04:38.262Z,12.20
2017-10-19T07:07:09.344Z,12.20
2017-10-19T07:09:38.962Z,12.20
2017-10-19T07:12:08.583Z,12.30
2017-10-19T07:14:38.020Z,12.30
2017-10-19T07:17:08.248Z,12.40
2017-10-19T07:19:40.420Z,12.50
2017-10-19T07:22:10.354Z,12.50
2017-10-19T07:24:39.710Z,12.50
2017-10-19T07:27:09.190Z,12.60
2017-10-19T07:29:39.241Z,12.70
2017-10-19T07:32:08.726Z,12.70
2017-10-19T07:34:38.191Z,12.70
2017-10-19T07:37:07.533Z,12.80
2017-10-19T07:39:37.286Z,12.80
2017-10-19T07:42:07.609Z,12.90
2017-10-19T07:44:38.039Z,13.00
2017-10-19T07:47:08.505Z,13.00
2017-10-19T07:49:38.115Z,13.00
2017-10-19T07:52:07.915Z,13.00
2017-10-19T07:54:37.562Z,13.10
2017-10-19T07:57:07.084Z,13.20
2017-10-19T07:59:36.420Z,13.30
2017-10-19T08:02:05.799Z,13.40
2017-10-19T08:04:43.801Z,13.50
2017-10-19T08:07:16.709Z,13.40
2017-10-19T08:09:46.220Z,13.50
2017-10-19T08:12:15.475Z,13.60
2017-10-19T08:14:44.959Z,13.60
2017-10-19T08:17:14.743Z,13.70
2017-10-19T08:19:44.243Z,13.70
2017-10-19T08:22:14.395Z,13.80
2017-10-19T08:24:44.008Z,13.80
2017-10-19T08:27:13.482Z,13.90
2017-10-19T08:29:43.047Z,13.90
2017-10-19T08:32:13.603Z,14.00
2017-10-19T08:34:42.942Z,14.00
2017-10-19T08:37:12.309Z,14.00
2017-10-19T08:39:41.614Z,14.00
2017-10-19T08:42:11.195Z,14.10
2017-10-19T08:44:40.675Z,14.10
2017-10-19T08:47:10.220Z,14.20
2017-10-19T08:49:43.075Z,14.30
2017-10-19T08:52:12.878Z,14.40
2017-10-19T08:54:43.263Z,14.60
2017-10-19T08:57:15.501Z,14.60
2017-10-19T08:59:49.144Z,14.80
2017-10-19T09:02:20.374Z,14.80
2017-10-19T09:04:56.131Z,14.80
2017-10-19T09:07:27.956Z,14.90
2017-10-19T09:10:05.253Z,15.00
2017-10-19T09:12:41.016Z,15.00
2017-10-19T09:15:11.533Z,15.10
2017-10-19T09:17:41.580Z,15.30
2017-10-19T09:20:11.090Z,15.50
2017-10-19T09:22:40.463Z,15.70
2017-10-19T09:25:10.605Z,15.80
2017-10-19T09:27:52.441Z,15.80
2017-10-19T09:30:27.629Z,15.80
2017-10-19T09:32:57.203Z,15.80
2017-10-19T09:35:26.835Z,15.80
2017-10-19T09:37:56.182Z,16.00
2017-10-19T09:40:27.191Z,16.00
2017-10-19T09:42:57.022Z,16.20
2017-10-19T09:45:27.205Z,16.40
2017-10-19T09:47:58.636Z,16.70
2017-10-19T09:50:28.943Z,16.70
2017-10-19T09:52:59.912Z,16.80
2017-10-19T09:55:29.585Z,17.00
2017-10-19T09:57:59.326Z,17.00
2017-10-19T10:00:31.610Z,17.20
2017-10-19T10:03:07.580Z,17.10
2017-10-19T10:05:39.280Z,17.40
2017-10-19T10:08:08.782Z,17.40
2017-10-19T10:10:39.086Z,17.70
2017-10-19T10:13:10.349Z,17.90
2017-10-19T10:15:51.894Z,18.10
2017-10-19T10:18:37.016Z,18.40
2017-10-19T10:21:09.984Z,18.80
2017-10-19T10:23:40.308Z,19.10
2017-10-19T10:26:16.548Z,19.40
2017-10-19T10:28:46.133Z,19.80
2017-10-19T10:31:16.095Z,19.90
2017-10-19T10:33:45.979Z,20.10
2017-10-19T10:36:18.295Z,21.00
2017-10-19T10:39:55.222Z,22.40
2017-10-19T10:42:26.914Z,22.70
2017-10-19T10:45:02.265Z,24.10
2017-10-19T10:47:32.880Z,24.50
2017-10-19T10:50:08.240Z,25.30
2017-10-19T10:52:39.032Z,25.10
2017-10-19T10:55:09.558Z,25.20
2017-10-19T10:57:42.275Z,25.80
2017-10-19T11:00:13.662Z,25.80
2017-10-19T11:02:43.133Z,26.20
2017-10-19T11:05:13.034Z,25.80
2017-10-19T11:07:43.339Z,26.20
2017-10-19T11:10:13.742Z,26.20
2017-10-19T11:12:43.071Z,26.10
2017-10-19T11:15:20.772Z,26.60
2017-10-19T11:18:02.424Z,26.60
2017-10-19T11:20:40.768Z,24.60
2017-10-19T11:23:16.717Z,23.90
2017-10-19T11:26:01.303Z,23.80
2017-10-19T11:28:42.838Z,23.90
2017-10-19T11:31:20.107Z,24.60
2017-10-19T11:33:51.687Z,25.10
2017-10-19T11:36:28.400Z,24.90
2017-10-19T11:38:59.055Z,24.90
2017-10-19T11:41:30.925Z,25.10
2017-10-19T11:44:01.738Z,25.90
2017-10-19T11:46:31.248Z,26.20
2017-10-19T11:49:09.736Z,25.20
2017-10-19T11:51:40.514Z,25.30
2017-10-19T11:54:12.627Z,25.80
2017-10-19T11:56:42.101Z,26.00
2017-10-19T11:59:16.270Z,26.00
2017-10-19T12:01:46.737Z,23.80
2017-10-19T12:04:16.164Z,23.70
2017-10-19T12:06:46.481Z,23.30
2017-10-19T12:09:37.230Z,24.10
2017-10-19T12:12:18.063Z,24.90
2017-10-19T12:15:01.474Z,24.80
2017-10-19T12:17:37.620Z,24.80
2017-10-19T12:20:11.604Z,24.20
2017-10-19T12:22:43.302Z,23.80
2017-10-19T12:25:12.762Z,24.50
2017-10-19T12:27:43.662Z,24.50
2017-10-19T12:30:13.282Z,24.40
2017-10-19T12:32:42.683Z,23.80
2017-10-19T12:35:12.241Z,24.00
2017-10-19T12:37:41.849Z,23.90
2017-10-19T12:40:11.363Z,24.30
2017-10-19T12:42:42.032Z,24.30
2017-10-19T12:45:13.039Z,24.40
2017-10-19T12:47:45.314Z,24.40
2017-10-19T12:50:15.170Z,24.40
2017-10-19T12:52:47.050Z,24.20
2017-10-19T12:55:17.125Z,23.70
2017-10-19T12:58:00.168Z,23.80
2017-10-19T13:00:34.404Z,23.70
2017-10-19T13:03:11.159Z,23.90
2017-10-19T13:05:55.339Z,23.90
2017-10-19T13:08:33.486Z,24.60
2017-10-19T13:11:07.794Z,24.10
2017-10-19T13:13:47.371Z,24.50
2017-10-19T13:16:18.121Z,25.00
2017-10-19T13:18:48.944Z,24.80
2017-10-19T13:21:18.889Z,24.80
2017-10-19T13:24:07.677Z,24.10
2017-10-19T13:26:38.633Z,23.60
2017-10-19T13:29:08.506Z,23.50
2017-10-19T13:31:41.902Z,24.50
2017-10-19T13:34:11.744Z,24.50
2017-10-19T13:36:41.337Z,24.10
2017-10-19T13:39:10.826Z,23.90
2017-10-19T13:41:40.554Z,24.20
2017-10-19T13:44:10.108Z,24.40
2017-10-19T13:46:41.818Z,24.40
2017-10-19T13:49:11.262Z,24.80
2017-10-19T13:51:40.796Z,25.50
2017-10-19T13:54:11.279Z,25.20
2017-10-19T13:56:40.942Z,25.20
2017-10-19T13:59:12.452Z,25.00
2017-10-19T14:01:42.187Z,25.00
2017-10-19T14:04:15.903Z,25.00
2017-10-19T14:06:47.024Z,24.80
2017-10-19T14:09:17.637Z,24.80
2017-10-19T14:11:48.894Z,24.80
2017-10-19T14:14:19.454Z,24.40
2017-10-19T14:16:50.673Z,24.00
2017-10-19T14:19:23.292Z,24.10
2017-10-19T14:21:53.957Z,24.10
2017-10-19T14:24:37.360Z,23.40
2017-10-19T14:27:19.877Z,22.70
2017-10-19T14:30:05.713Z,22.60
2017-10-19T14:32:45.592Z,22.80
2017-10-19T14:35:23.768Z,22.80
2017-10-19T14:38:06.207Z,22.60
2017-10-19T14:40:39.093Z,22.40
2017-10-19T14:43:09.568Z,22.20
2017-10-19T14:45:39.346Z,22.20
2017-10-19T14:48:09.861Z,22.00
2017-10-19T14:50:40.359Z,22.10
2017-10-19T14:53:11.789Z,22.10
2017-10-19T14:55:42.211Z,22.10
2017-10-19T14:58:12.742Z,22.10
2017-10-19T15:00:42.291Z,22.00
2017-10-19T15:03:11.860Z,21.90
2017-10-19T15:05:41.847Z,21.90
2017-10-19T15:08:11.520Z,21.80
2017-10-19T15:10:41.295Z,21.80
2017-10-19T15:13:11.077Z,21.80
2017-10-19T15:15:47.818Z,21.80
2017-10-19T15:18:30.815Z,21.50
2017-10-19T15:21:02.499Z,21.50
2017-10-19T15:23:36.711Z,21.50
2017-10-19T15:26:06.366Z,21.40
2017-10-19T15:28:35.824Z,21.40
2017-10-19T15:31:07.388Z,21.30
2017-10-19T15:33:42.650Z,21.30
2017-10-19T15:36:14.408Z,21.20
2017-10-19T15:38:54.081Z,21.10
2017-10-19T15:41:34.268Z,21.10
2017-10-19T15:44:06.205Z,21.10
2017-10-19T15:46:36.659Z,21.00
2017-10-19T15:49:08.879Z,21.00
2017-10-19T15:51:40.157Z,21.00
2017-10-19T15:54:24.320Z,20.90
2017-10-19T15:57:12.113Z,20.80
2017-10-19T15:59:42.886Z,20.80
2017-10-19T16:02:17.468Z,20.60
2017-10-19T16:04:47.689Z,20.60
2017-10-19T16:07:17.289Z,20.60
2017-10-19T16:09:56.743Z,20.50
2017-10-19T16:12:39.161Z,20.50
2017-10-19T16:15:10.350Z,20.50
2017-10-19T16:17:40.084Z,20.50
2017-10-19T16:20:23.810Z,20.40
2017-10-19T16:22:53.958Z,20.30
2017-10-19T16:25:27.144Z,20.20
2017-10-19T16:27:57.428Z,20.10
2017-10-19T16:30:28.732Z,20.00
2017-10-19T16:32:59.399Z,20.00
2017-10-19T16:35:29.350Z,19.90
2017-10-19T16:37:59.695Z,19.90
2017-10-19T16:40:33.285Z,19.80
2017-10-19T16:43:05.131Z,19.80
2017-10-19T16:45:35.677Z,19.80
2017-10-19T16:48:05.808Z,19.80
2017-10-19T16:51:08.469Z,19.70
2017-10-19T16:53:43.794Z,19.80
2017-10-19T16:56:20.083Z,19.70
2017-10-19T16:58:55.202Z,19.70
2017-10-19T17:01:29.556Z,19.70
2017-10-19T17:04:00.701Z,19.60
2017-10-19T17:06:30.618Z,19.60
2017-10-19T17:09:02.595Z,19.60
2017-10-19T17:11:42.543Z,19.60
2017-10-19T17:14:17.329Z,19.60
2017-10-19T17:16:46.947Z,19.50
2017-10-19T17:19:16.488Z,19.50
2017-10-19T17:21:51.558Z,19.40
2017-10-19T17:24:22.635Z,19.40
2017-10-19T17:26:52.134Z,19.30
2017-10-19T17:29:24.845Z,19.40
2017-10-19T17:31:56.278Z,19.30
2017-10-19T17:34:30.059Z,19.30
2017-10-19T17:37:03.632Z,19.30
2017-10-19T17:39:39.488Z,19.20
2017-10-19T17:42:18.313Z,19.20
2017-10-19T17:44:54.574Z,19.10
2017-10-19T17:47:43.996Z,19.10
2017-10-19T17:50:17.071Z,19.10
2017-10-19T17:52:50.163Z,19.10
2017-10-19T17:55:21.157Z,19.10
2017-10-19T17:57:50.870Z,19.10
2017-10-19T18:00:20.535Z,19.10
2017-10-19T18:02:54.138Z,19.10
2017-10-19T18:05:23.655Z,19.10
2017-10-19T18:07:53.631Z,19.00
2017-10-19T18:10:26.770Z,19.00
2017-10-19T18:12:56.809Z,19.00
2017-10-19T18:15:29.725Z,19.00
2017-10-19T18:18:05.714Z,19.00
2017-10-19T18:20:36.996Z,19.00
2017-10-19T18:23:07.754Z,19.00
2017-10-19T18:25:39.330Z,19.00
2017-10-19T18:28:11.182Z,19.00
2017-10-19T18:30:40.831Z,19.00
2017-10-19T18:33:10.617Z,19.00
2017-10-19T18:35:41.162Z,19.00
2017-10-19T18:38:11.379Z,19.00
2017-10-19T18:40:44.022Z,19.00
2017-10-19T18:43:14.678Z,19.00
2017-10-19T18:45:53.639Z,18.90
2017-10-19T18:48:24.943Z,18.90
2017-10-19T18:50:56.292Z,18.90
2017-10-19T18:53:26.538Z,19.00
2017-10-19T18:55:56.661Z,18.90
2017-10-19T18:58:26.547Z,18.90
2017-10-19T19:00:56.348Z,18.90
2017-10-19T19:03:28.101Z,18.80
2017-10-19T19:06:01.795Z,18.70
2017-10-19T19:08:32.699Z,18.70
2017-10-19T19:11:04.472Z,18.70
2017-10-19T19:13:44.089Z,18.70
2017-10-19T19:16:24.283Z,18.60
2017-10-19T19:18:55.846Z,18.50
2017-10-19T19:21:25.547Z,18.40
2017-10-19T19:23:56.584Z,18.40
2017-10-19T19:26:26.664Z,18.40
2017-10-19T19:28:57.349Z,18.30
2017-10-19T19:31:27.533Z,18.30
2017-10-19T19:33:57.873Z,18.20
2017-10-19T19:36:27.365Z,18.20
2017-10-19T19:38:56.949Z,18.10
2017-10-19T19:41:26.432Z,18.10
2017-10-19T19:43:56.734Z,18.10
2017-10-19T19:46:26.411Z,18.10
2017-10-19T19:48:56.700Z,18.10
2017-10-19T19:51:27.648Z,18.00
2017-10-19T19:53:57.164Z,18.00
2017-10-19T19:56:27.106Z,17.90
2017-10-19T19:58:57.118Z,17.90
2017-10-19T20:01:34.151Z,17.90
2017-10-19T20:04:08.694Z,17.90
2017-10-19T20:06:48.325Z,17.80
2017-10-19T20:09:23.368Z,17.80
2017-10-19T20:12:20.132Z,17.80
2017-10-19T20:14:51.902Z,17.80
2017-10-19T20:17:31.726Z,17.80
2017-10-19T20:20:10.993Z,17.80
2017-10-19T21:00:01.964Z,17.50
2017-10-19T21:02:34.760Z,17.40
2017-10-19T21:05:07.458Z,17.40
2017-10-19T21:07:40.144Z,17.30
2017-10-19T21:10:13.110Z,17.40
2017-10-19T21:12:45.304Z,17.30
2017-10-19T21:15:16.960Z,17.30
2017-10-19T21:17:50.667Z,17.30
2017-10-19T21:20:25.794Z,17.20
2017-10-19T21:22:58.144Z,17.20
2017-10-19T21:25:37.710Z,17.10
2017-10-19T21:28:27.609Z,17.10
2017-10-19T21:31:16.786Z,17.10
2017-10-19T21:34:00.440Z,17.00
2017-10-19T21:36:38.920Z,17.00
2017-10-19T21:39:25.378Z,17.00
2017-10-19T21:42:04.970Z,17.00
2017-10-19T21:44:40.969Z,17.00
2017-10-19T21:47:13.890Z,17.00
2017-10-19T21:49:45.524Z,17.00
2017-10-19T21:52:30.261Z,17.00
2017-10-19T21:55:05.463Z,16.90
2017-10-19T21:57:56.410Z,16.90
2017-10-19T22:00:30.897Z,16.90
2017-10-19T22:03:11.667Z,16.90
2017-10-19T22:05:43.353Z,16.90
2017-10-19T22:08:23.094Z,16.90
2017-10-19T22:10:52.879Z,16.90
2017-10-19T22:13:23.355Z,16.90
2017-10-19T22:15:55.277Z,17.00
2017-10-19T22:18:28.223Z,16.90
2017-10-19T22:21:00.509Z,17.00
2017-10-19T22:23:32.975Z,17.00
2017-10-19T22:26:05.605Z,17.00
2017-10-19T22:28:53.905Z,17.00
2017-10-19T22:31:31.584Z,17.00
2017-10-19T22:34:17.609Z,17.00
2017-10-19T22:36:49.707Z,17.10
2017-10-19T22:39:22.488Z,17.10
2017-10-19T22:41:53.785Z,17.10
2017-10-19T22:44:29.453Z,17.10
2017-10-19T22:47:00.282Z,17.10
2017-10-19T22:49:31.973Z,17.10
2017-10-19T22:54:55.379Z,17.10
2017-10-19T22:57:33.771Z,17.10
2017-10-19T23:00:06.004Z,17.10
2017-10-19T23:02:47.839Z,17.10
2017-10-19T23:05:21.993Z,17.10
2017-10-19T23:07:52.066Z,17.10
2017-10-19T23:10:23.657Z,17.00
2017-10-19T23:12:55.200Z,17.00
2017-10-19T23:15:26.471Z,17.00
2017-10-19T23:17:57.234Z,17.00
2017-10-19T23:20:29.857Z,17.00
2017-10-19T23:23:00.478Z,17.00
2017-10-19T23:25:38.572Z,17.00
2017-10-19T23:28:09.222Z,17.00
2017-10-19T23:30:40.785Z,17.00
2017-10-19T23:33:11.263Z,17.00
2017-10-19T23:35:43.812Z,17.10
2017-10-19T23:38:17.120Z,17.00
2017-10-19T23:40:47.775Z,17.00
2017-10-19T23:46:13.678Z,17.10
2017-10-19T23:48:45.432Z,17.10
2017-10-19T23:51:19.059Z,17.10
2017-10-19T23:53:49.623Z,17.20
2017-10-19T23:56:21.405Z,17.30
2017-10-19T23:58:52.050Z,17.30
